sensor_id;sensor_type;location;lat;lon;timestamp;P1;durP1;ratioP1;P2;durP2;ratioP2
34902;SDS011;21114;44.840;0.214;2022-10-31T00:02:00;9.27;;;6.20;;
34902;SDS011;21114;44.840;0.214;2022-10-31T00:04:26;12.73;;;6.97;;
34902;SDS011;21114;44.840;0.214;2022-10-31T00:06:52;9.27;;;6.93;;
34902;SDS011;21114;44.840;0.214;2022-10-31T00:09:18;7.10;;;4.97;;
34902;SDS011;21114;44.840;0.214;2022-10-31T00:11:45;13.50;;;8.23;;
34902;SDS011;21114;44.840;0.214;2022-10-31T00:14:11;8.45;;;5.75;;
34902;SDS011;21114;44.840;0.214;2022-10-31T00:16:37;14.00;;;6.07;;
34902;SDS011;21114;44.840;0.214;2022-10-31T00:19:04;12.13;;;6.72;;
34902;SDS011;21114;44.840;0.214;2022-10-31T00:22:21;8.68;;;6.57;;
34902;SDS011;21114;44.840;0.214;2022-10-31T00:24:47;9.15;;;6.75;;
34902;SDS011;21114;44.840;0.214;2022-10-31T00:27:13;10.85;;;6.75;;
34902;SDS011;21114;44.840;0.214;2022-10-31T00:29:39;8.93;;;6.15;;
34902;SDS011;21114;44.840;0.214;2022-10-31T00:32:05;7.75;;;5.95;;
34902;SDS011;21114;44.840;0.214;2022-10-31T00:34:32;6.97;;;5.32;;
34902;SDS011;21114;44.840;0.214;2022-10-31T00:36:58;9.90;;;6.13;;
34902;SDS011;21114;44.840;0.214;2022-10-31T00:39:24;6.05;;;5.40;;
34902;SDS011;21114;44.840;0.214;2022-10-31T00:41:50;13.95;;;6.57;;
34902;SDS011;21114;44.840;0.214;2022-10-31T00:44:16;11.13;;;6.10;;
34902;SDS011;21114;44.840;0.214;2022-10-31T00:46:42;13.63;;;6.95;;
34902;SDS011;21114;44.840;0.214;2022-10-31T00:49:08;11.13;;;6.68;;
34902;SDS011;21114;44.840;0.214;2022-10-31T00:51:34;9.15;;;6.47;;
34902;SDS011;21114;44.840;0.214;2022-10-31T00:54:00;10.80;;;6.45;;
34902;SDS011;21114;44.840;0.214;2022-10-31T00:56:26;8.23;;;6.57;;
34902;SDS011;21114;44.840;0.214;2022-10-31T00:58:52;13.23;;;7.57;;
34902;SDS011;21114;44.840;0.214;2022-10-31T01:01:19;9.55;;;7.40;;
34902;SDS011;21114;44.840;0.214;2022-10-31T01:03:45;14.20;;;8.55;;
34902;SDS011;21114;44.840;0.214;2022-10-31T01:06:11;9.45;;;6.80;;
34902;SDS011;21114;44.840;0.214;2022-10-31T01:09:26;10.20;;;7.18;;
34902;SDS011;21114;44.840;0.214;2022-10-31T01:11:52;15.27;;;7.55;;
34902;SDS011;21114;44.840;0.214;2022-10-31T01:14:18;10.18;;;6.97;;
34902;SDS011;21114;44.840;0.214;2022-10-31T01:16:44;11.85;;;8.57;;
34902;SDS011;21114;44.840;0.214;2022-10-31T01:19:10;10.57;;;6.95;;
34902;SDS011;21114;44.840;0.214;2022-10-31T01:21:37;11.98;;;6.47;;
34902;SDS011;21114;44.840;0.214;2022-10-31T01:24:03;9.30;;;6.65;;
34902;SDS011;21114;44.840;0.214;2022-10-31T01:26:29;11.60;;;7.45;;
34902;SDS011;21114;44.840;0.214;2022-10-31T01:29:44;11.20;;;7.72;;
34902;SDS011;21114;44.840;0.214;2022-10-31T01:32:10;11.88;;;7.40;;
34902;SDS011;21114;44.840;0.214;2022-10-31T01:34:36;10.95;;;7.38;;
34902;SDS011;21114;44.840;0.214;2022-10-31T01:37:02;10.73;;;8.00;;
34902;SDS011;21114;44.840;0.214;2022-10-31T01:39:29;10.20;;;7.38;;
34902;SDS011;21114;44.840;0.214;2022-10-31T01:41:55;12.48;;;8.10;;
34902;SDS011;21114;44.840;0.214;2022-10-31T01:49:53;13.13;;;8.63;;
34902;SDS011;21114;44.840;0.214;2022-10-31T01:53:08;14.90;;;9.23;;
34902;SDS011;21114;44.840;0.214;2022-10-31T01:56:24;11.35;;;8.23;;
34902;SDS011;21114;44.840;0.214;2022-10-31T01:59:40;14.00;;;10.48;;
34902;SDS011;21114;44.840;0.214;2022-10-31T02:02:57;13.38;;;8.73;;
34902;SDS011;21114;44.840;0.214;2022-10-31T02:06:19;12.10;;;8.40;;
34902;SDS011;21114;44.840;0.214;2022-10-31T02:12:50;18.38;;;9.43;;
34902;SDS011;21114;44.840;0.214;2022-10-31T02:16:05;13.98;;;8.10;;
34902;SDS011;21114;44.840;0.214;2022-10-31T02:18:31;12.20;;;8.48;;
34902;SDS011;21114;44.840;0.214;2022-10-31T02:21:00;20.50;;;10.35;;
34902;SDS011;21114;44.840;0.214;2022-10-31T02:41:00;12.80;;;6.68;;
34902;SDS011;21114;44.840;0.214;2022-10-31T02:44:19;7.80;;;6.70;;
34902;SDS011;21114;44.840;0.214;2022-10-31T02:47:36;17.17;;;6.22;;
34902;SDS011;21114;44.840;0.214;2022-10-31T02:50:42;13.25;;;7.18;;
34902;SDS011;21114;44.840;0.214;2022-10-31T02:53:58;14.20;;;6.95;;
34902;SDS011;21114;44.840;0.214;2022-10-31T02:56:24;8.50;;;7.28;;
34902;SDS011;21114;44.840;0.214;2022-10-31T02:58:54;6.82;;;6.00;;
34902;SDS011;21114;44.840;0.214;2022-10-31T03:10:24;9.52;;;6.72;;
34902;SDS011;21114;44.840;0.214;2022-10-31T03:13:45;11.27;;;7.55;;
34902;SDS011;21114;44.840;0.214;2022-10-31T03:16:59;12.05;;;6.80;;
34902;SDS011;21114;44.840;0.214;2022-10-31T03:20:16;9.02;;;5.82;;
34902;SDS011;21114;44.840;0.214;2022-10-31T03:23:34;9.30;;;6.43;;
34902;SDS011;21114;44.840;0.214;2022-10-31T03:26:51;10.30;;;6.82;;
34902;SDS011;21114;44.840;0.214;2022-10-31T03:30:06;10.02;;;7.47;;
34902;SDS011;21114;44.840;0.214;2022-10-31T03:32:41;9.15;;;6.60;;
34902;SDS011;21114;44.840;0.214;2022-10-31T03:35:57;12.45;;;8.45;;
34902;SDS011;21114;44.840;0.214;2022-10-31T03:39:14;11.20;;;7.55;;
34902;SDS011;21114;44.840;0.214;2022-10-31T03:42:30;11.25;;;7.50;;
34902;SDS011;21114;44.840;0.214;2022-10-31T03:45:45;11.43;;;7.55;;
34902;SDS011;21114;44.840;0.214;2022-10-31T03:49:01;10.63;;;6.75;;
34902;SDS011;21114;44.840;0.214;2022-10-31T03:54:09;10.93;;;8.80;;
34902;SDS011;21114;44.840;0.214;2022-10-31T04:00:20;13.68;;;7.90;;
34902;SDS011;21114;44.840;0.214;2022-10-31T04:02:49;10.18;;;6.85;;
34902;SDS011;21114;44.840;0.214;2022-10-31T04:05:43;9.23;;;7.72;;
34902;SDS011;21114;44.840;0.214;2022-10-31T04:08:44;10.18;;;7.25;;
34902;SDS011;21114;44.840;0.214;2022-10-31T04:11:51;10.20;;;7.15;;
34902;SDS011;21114;44.840;0.214;2022-10-31T04:15:06;11.73;;;7.13;;
34902;SDS011;21114;44.840;0.214;2022-10-31T04:18:22;10.25;;;6.75;;
34902;SDS011;21114;44.840;0.214;2022-10-31T04:21:37;11.15;;;7.53;;
34902;SDS011;21114;44.840;0.214;2022-10-31T04:24:03;9.18;;;7.00;;
34902;SDS011;21114;44.840;0.214;2022-10-31T04:26:29;10.60;;;6.80;;
34902;SDS011;21114;44.840;0.214;2022-10-31T04:28:55;34.53;;;8.15;;
34902;SDS011;21114;44.840;0.214;2022-10-31T04:31:22;14.88;;;8.93;;
34902;SDS011;21114;44.840;0.214;2022-10-31T04:33:48;13.60;;;7.88;;
34902;SDS011;21114;44.840;0.214;2022-10-31T04:36:14;9.32;;;7.25;;
34902;SDS011;21114;44.840;0.214;2022-10-31T04:38:40;8.50;;;5.88;;
34902;SDS011;21114;44.840;0.214;2022-10-31T04:41:06;9.73;;;6.53;;
34902;SDS011;21114;44.840;0.214;2022-10-31T04:43:32;19.15;;;8.25;;
34902;SDS011;21114;44.840;0.214;2022-10-31T04:45:58;8.95;;;7.05;;
34902;SDS011;21114;44.840;0.214;2022-10-31T04:48:24;10.60;;;7.15;;
34902;SDS011;21114;44.840;0.214;2022-10-31T04:50:50;11.57;;;6.53;;
34902;SDS011;21114;44.840;0.214;2022-10-31T04:53:16;13.57;;;8.02;;
34902;SDS011;21114;44.840;0.214;2022-10-31T04:55:42;12.13;;;6.32;;
34902;SDS011;21114;44.840;0.214;2022-10-31T04:58:08;10.93;;;6.93;;
34902;SDS011;21114;44.840;0.214;2022-10-31T05:00:35;10.10;;;6.57;;
34902;SDS011;21114;44.840;0.214;2022-10-31T05:03:01;9.82;;;6.93;;
34902;SDS011;21114;44.840;0.214;2022-10-31T05:05:28;11.50;;;7.75;;
34902;SDS011;21114;44.840;0.214;2022-10-31T05:08:47;10.98;;;8.05;;
34902;SDS011;21114;44.840;0.214;2022-10-31T05:11:13;11.20;;;7.20;;
34902;SDS011;21114;44.840;0.214;2022-10-31T05:13:39;8.68;;;7.40;;
34902;SDS011;21114;44.840;0.214;2022-10-31T05:16:05;13.88;;;8.52;;
34902;SDS011;21114;44.840;0.214;2022-10-31T05:18:31;14.27;;;7.57;;
34902;SDS011;21114;44.840;0.214;2022-10-31T05:20:57;12.18;;;8.15;;
34902;SDS011;21114;44.840;0.214;2022-10-31T05:23:23;12.40;;;7.40;;
34902;SDS011;21114;44.840;0.214;2022-10-31T05:25:49;14.15;;;6.88;;
34902;SDS011;21114;44.840;0.214;2022-10-31T05:28:15;10.20;;;6.53;;
34902;SDS011;21114;44.840;0.214;2022-10-31T05:30:41;10.73;;;8.13;;
34902;SDS011;21114;44.840;0.214;2022-10-31T05:33:07;12.80;;;7.35;;
34902;SDS011;21114;44.840;0.214;2022-10-31T05:35:33;9.95;;;6.60;;
34902;SDS011;21114;44.840;0.214;2022-10-31T05:38:00;13.43;;;8.18;;
34902;SDS011;21114;44.840;0.214;2022-10-31T05:40:26;12.60;;;7.53;;
34902;SDS011;21114;44.840;0.214;2022-10-31T05:43:41;9.93;;;6.95;;
34902;SDS011;21114;44.840;0.214;2022-10-31T05:46:07;12.95;;;7.45;;
34902;SDS011;21114;44.840;0.214;2022-10-31T05:48:33;15.68;;;7.55;;
34902;SDS011;21114;44.840;0.214;2022-10-31T05:50:59;15.75;;;7.97;;
34902;SDS011;21114;44.840;0.214;2022-10-31T05:53:25;18.23;;;8.80;;
34902;SDS011;21114;44.840;0.214;2022-10-31T05:55:51;9.23;;;6.00;;
34902;SDS011;21114;44.840;0.214;2022-10-31T05:58:17;11.77;;;7.43;;
34902;SDS011;21114;44.840;0.214;2022-10-31T06:00:43;10.73;;;7.07;;
34902;SDS011;21114;44.840;0.214;2022-10-31T06:03:10;15.05;;;8.02;;
34902;SDS011;21114;44.840;0.214;2022-10-31T06:05:36;10.77;;;6.90;;
34902;SDS011;21114;44.840;0.214;2022-10-31T06:08:02;11.45;;;6.70;;
34902;SDS011;21114;44.840;0.214;2022-10-31T06:10:28;9.68;;;7.00;;
34902;SDS011;21114;44.840;0.214;2022-10-31T06:12:54;11.70;;;7.40;;
34902;SDS011;21114;44.840;0.214;2022-10-31T06:15:20;8.80;;;6.70;;
34902;SDS011;21114;44.840;0.214;2022-10-31T06:17:47;12.50;;;7.20;;
34902;SDS011;21114;44.840;0.214;2022-10-31T06:20:13;12.70;;;7.15;;
34902;SDS011;21114;44.840;0.214;2022-10-31T06:22:40;12.98;;;6.97;;
34902;SDS011;21114;44.840;0.214;2022-10-31T06:25:06;10.65;;;7.07;;
34902;SDS011;21114;44.840;0.214;2022-10-31T06:27:32;11.82;;;7.65;;
34902;SDS011;21114;44.840;0.214;2022-10-31T06:29:58;14.02;;;6.88;;
34902;SDS011;21114;44.840;0.214;2022-10-31T06:32:25;14.32;;;6.30;;
34902;SDS011;21114;44.840;0.214;2022-10-31T06:34:51;11.48;;;7.45;;
34902;SDS011;21114;44.840;0.214;2022-10-31T06:37:17;9.65;;;8.23;;
34902;SDS011;21114;44.840;0.214;2022-10-31T06:39:43;9.75;;;5.97;;
34902;SDS011;21114;44.840;0.214;2022-10-31T06:42:09;8.50;;;6.53;;
34902;SDS011;21114;44.840;0.214;2022-10-31T06:44:35;8.95;;;7.30;;
34902;SDS011;21114;44.840;0.214;2022-10-31T06:47:01;12.27;;;6.60;;
34902;SDS011;21114;44.840;0.214;2022-10-31T06:49:27;10.80;;;7.75;;
34902;SDS011;21114;44.840;0.214;2022-10-31T06:51:53;19.90;;;6.25;;
34902;SDS011;21114;44.840;0.214;2022-10-31T06:54:20;11.65;;;6.97;;
34902;SDS011;21114;44.840;0.214;2022-10-31T06:56:46;14.68;;;6.57;;
34902;SDS011;21114;44.840;0.214;2022-10-31T06:59:48;15.50;;;7.35;;
34902;SDS011;21114;44.840;0.214;2022-10-31T07:02:15;11.32;;;7.00;;
34902;SDS011;21114;44.840;0.214;2022-10-31T07:04:41;12.65;;;6.85;;
34902;SDS011;21114;44.840;0.214;2022-10-31T07:07:07;12.73;;;6.70;;
34902;SDS011;21114;44.840;0.214;2022-10-31T07:09:33;11.00;;;7.07;;
34902;SDS011;21114;44.840;0.214;2022-10-31T07:11:59;14.93;;;9.05;;
34902;SDS011;21114;44.840;0.214;2022-10-31T07:14:25;13.48;;;7.93;;
34902;SDS011;21114;44.840;0.214;2022-10-31T07:16:51;17.92;;;8.15;;
34902;SDS011;21114;44.840;0.214;2022-10-31T07:19:17;11.75;;;7.93;;
34902;SDS011;21114;44.840;0.214;2022-10-31T07:21:44;14.80;;;6.90;;
34902;SDS011;21114;44.840;0.214;2022-10-31T07:24:10;12.95;;;7.55;;
34902;SDS011;21114;44.840;0.214;2022-10-31T07:26:36;11.70;;;6.97;;
34902;SDS011;21114;44.840;0.214;2022-10-31T07:29:02;12.32;;;6.80;;
34902;SDS011;21114;44.840;0.214;2022-10-31T07:31:28;11.45;;;5.82;;
34902;SDS011;21114;44.840;0.214;2022-10-31T07:33:54;11.40;;;6.35;;
34902;SDS011;21114;44.840;0.214;2022-10-31T07:36:20;8.63;;;6.35;;
34902;SDS011;21114;44.840;0.214;2022-10-31T07:38:46;12.98;;;6.25;;
34902;SDS011;21114;44.840;0.214;2022-10-31T07:41:12;11.77;;;6.78;;
34902;SDS011;21114;44.840;0.214;2022-10-31T07:43:38;11.95;;;6.72;;
34902;SDS011;21114;44.840;0.214;2022-10-31T07:46:04;10.20;;;6.82;;
34902;SDS011;21114;44.840;0.214;2022-10-31T07:48:30;10.70;;;7.43;;
34902;SDS011;21114;44.840;0.214;2022-10-31T07:50:56;14.45;;;6.25;;
34902;SDS011;21114;44.840;0.214;2022-10-31T07:53:22;12.57;;;6.70;;
34902;SDS011;21114;44.840;0.214;2022-10-31T07:55:49;11.45;;;6.75;;
34902;SDS011;21114;44.840;0.214;2022-10-31T07:58:15;14.10;;;7.95;;
34902;SDS011;21114;44.840;0.214;2022-10-31T08:01:30;12.88;;;8.05;;
34902;SDS011;21114;44.840;0.214;2022-10-31T08:03:56;9.43;;;6.40;;
34902;SDS011;21114;44.840;0.214;2022-10-31T08:07:11;12.25;;;7.53;;
34902;SDS011;21114;44.840;0.214;2022-10-31T08:10:26;10.70;;;6.68;;
34902;SDS011;21114;44.840;0.214;2022-10-31T08:13:41;11.90;;;6.82;;
34902;SDS011;21114;44.840;0.214;2022-10-31T08:16:08;14.63;;;7.28;;
34902;SDS011;21114;44.840;0.214;2022-10-31T08:19:22;12.73;;;6.65;;
34902;SDS011;21114;44.840;0.214;2022-10-31T08:21:51;13.27;;;6.95;;
34902;SDS011;21114;44.840;0.214;2022-10-31T08:25:06;12.10;;;6.25;;
34902;SDS011;21114;44.840;0.214;2022-10-31T08:27:32;13.65;;;6.63;;
34902;SDS011;21114;44.840;0.214;2022-10-31T08:29:58;14.27;;;9.02;;
34902;SDS011;21114;44.840;0.214;2022-10-31T08:32:24;12.30;;;8.80;;
34902;SDS011;21114;44.840;0.214;2022-10-31T08:34:51;10.52;;;6.43;;
34902;SDS011;21114;44.840;0.214;2022-10-31T08:37:17;16.60;;;6.90;;
34902;SDS011;21114;44.840;0.214;2022-10-31T08:40:32;12.02;;;7.30;;
34902;SDS011;21114;44.840;0.214;2022-10-31T08:43:02;10.85;;;6.93;;
34902;SDS011;21114;44.840;0.214;2022-10-31T08:46:17;15.85;;;7.43;;
34902;SDS011;21114;44.840;0.214;2022-10-31T08:48:43;14.25;;;7.03;;
34902;SDS011;21114;44.840;0.214;2022-10-31T08:51:11;10.98;;;8.05;;
34902;SDS011;21114;44.840;0.214;2022-10-31T08:54:25;11.55;;;6.55;;
34902;SDS011;21114;44.840;0.214;2022-10-31T08:56:55;10.63;;;6.95;;
34902;SDS011;21114;44.840;0.214;2022-10-31T09:00:09;11.57;;;7.30;;
34902;SDS011;21114;44.840;0.214;2022-10-31T09:02:35;21.33;;;7.68;;
34902;SDS011;21114;44.840;0.214;2022-10-31T09:05:03;14.48;;;6.57;;
34902;SDS011;21114;44.840;0.214;2022-10-31T09:08:18;11.80;;;6.22;;
34902;SDS011;21114;44.840;0.214;2022-10-31T09:10:44;14.00;;;7.40;;
34902;SDS011;21114;44.840;0.214;2022-10-31T09:13:11;12.50;;;7.13;;
34902;SDS011;21114;44.840;0.214;2022-10-31T09:16:26;18.20;;;7.20;;
34902;SDS011;21114;44.840;0.214;2022-10-31T09:18:52;12.68;;;6.57;;
34902;SDS011;21114;44.840;0.214;2022-10-31T09:21:18;13.10;;;7.30;;
34902;SDS011;21114;44.840;0.214;2022-10-31T09:23:44;11.60;;;6.95;;
34902;SDS011;21114;44.840;0.214;2022-10-31T09:26:10;17.10;;;6.93;;
34902;SDS011;21114;44.840;0.214;2022-10-31T09:28:36;17.25;;;7.35;;
34902;SDS011;21114;44.840;0.214;2022-10-31T09:31:02;17.98;;;8.32;;
34902;SDS011;21114;44.840;0.214;2022-10-31T09:33:29;11.50;;;6.82;;
34902;SDS011;21114;44.840;0.214;2022-10-31T09:35:55;16.70;;;7.75;;
34902;SDS011;21114;44.840;0.214;2022-10-31T09:39:12;12.95;;;6.57;;
34902;SDS011;21114;44.840;0.214;2022-10-31T09:49:53;12.15;;;6.82;;
34902;SDS011;21114;44.840;0.214;2022-10-31T09:56:07;12.90;;;7.18;;
34902;SDS011;21114;44.840;0.214;2022-10-31T10:02:20;14.05;;;6.93;;
34902;SDS011;21114;44.840;0.214;2022-10-31T10:05:37;18.15;;;7.05;;
34902;SDS011;21114;44.840;0.214;2022-10-31T10:08:54;13.35;;;6.45;;
34902;SDS011;21114;44.840;0.214;2022-10-31T10:12:15;13.95;;;6.80;;
34902;SDS011;21114;44.840;0.214;2022-10-31T10:18:29;16.20;;;6.47;;
34902;SDS011;21114;44.840;0.214;2022-10-31T10:32:43;11.55;;;5.70;;
34902;SDS011;21114;44.840;0.214;2022-10-31T10:35:59;8.25;;;5.13;;
34902;SDS011;21114;44.840;0.214;2022-10-31T10:39:15;10.50;;;5.57;;
34902;SDS011;21114;44.840;0.214;2022-10-31T10:42:31;7.90;;;5.88;;
34902;SDS011;21114;44.840;0.214;2022-10-31T10:45:25;15.27;;;6.20;;
34902;SDS011;21114;44.840;0.214;2022-10-31T10:51:01;12.88;;;6.95;;
34902;SDS011;21114;44.840;0.214;2022-10-31T10:56:25;11.23;;;5.68;;
34902;SDS011;21114;44.840;0.214;2022-10-31T10:59:44;11.75;;;6.43;;
34902;SDS011;21114;44.840;0.214;2022-10-31T11:02:15;13.20;;;5.47;;
34902;SDS011;21114;44.840;0.214;2022-10-31T11:08:26;12.23;;;5.63;;
34902;SDS011;21114;44.840;0.214;2022-10-31T11:11:41;7.63;;;5.82;;
34902;SDS011;21114;44.840;0.214;2022-10-31T11:14:15;10.50;;;5.20;;
34902;SDS011;21114;44.840;0.214;2022-10-31T11:17:32;8.57;;;5.80;;
34902;SDS011;21114;44.840;0.214;2022-10-31T11:20:51;13.15;;;5.82;;
34902;SDS011;21114;44.840;0.214;2022-10-31T11:26:46;9.32;;;5.38;;
34902;SDS011;21114;44.840;0.214;2022-10-31T11:30:05;12.55;;;5.03;;
34902;SDS011;21114;44.840;0.214;2022-10-31T11:33:25;9.90;;;4.63;;
34902;SDS011;21114;44.840;0.214;2022-10-31T11:36:42;7.70;;;4.50;;
34902;SDS011;21114;44.840;0.214;2022-10-31T11:39:58;11.80;;;6.28;;
34902;SDS011;21114;44.840;0.214;2022-10-31T11:43:13;12.88;;;5.78;;
34902;SDS011;21114;44.840;0.214;2022-10-31T11:46:33;12.50;;;5.55;;
34902;SDS011;21114;44.840;0.214;2022-10-31T11:49:42;10.98;;;4.93;;
34902;SDS011;21114;44.840;0.214;2022-10-31T11:52:57;12.45;;;6.13;;
34902;SDS011;21114;44.840;0.214;2022-10-31T11:55:32;12.50;;;5.00;;
34902;SDS011;21114;44.840;0.214;2022-10-31T12:01:46;17.35;;;5.97;;
34902;SDS011;21114;44.840;0.214;2022-10-31T12:07:38;12.00;;;5.88;;
34902;SDS011;21114;44.840;0.214;2022-10-31T12:10:10;9.25;;;5.53;;
34902;SDS011;21114;44.840;0.214;2022-10-31T12:16:08;9.98;;;5.78;;
34902;SDS011;21114;44.840;0.214;2022-10-31T12:33:05;14.63;;;6.95;;
34902;SDS011;21114;44.840;0.214;2022-10-31T12:44:48;22.33;;;7.68;;
34902;SDS011;21114;44.840;0.214;2022-10-31T12:59:01;10.13;;;6.30;;
34902;SDS011;21114;44.840;0.214;2022-10-31T13:02:19;10.75;;;5.70;;
34902;SDS011;21114;44.840;0.214;2022-10-31T13:05:37;14.68;;;5.70;;
34902;SDS011;21114;44.840;0.214;2022-10-31T13:08:54;17.92;;;6.97;;
34902;SDS011;21114;44.840;0.214;2022-10-31T13:12:11;13.68;;;5.47;;
34902;SDS011;21114;44.840;0.214;2022-10-31T13:15:27;8.95;;;6.40;;
34902;SDS011;21114;44.840;0.214;2022-10-31T13:18:45;13.82;;;4.75;;
34902;SDS011;21114;44.840;0.214;2022-10-31T13:27:21;10.70;;;6.03;;
34902;SDS011;21114;44.840;0.214;2022-10-31T13:30:41;11.75;;;6.00;;
34902;SDS011;21114;44.840;0.214;2022-10-31T13:33:57;15.43;;;5.78;;
34902;SDS011;21114;44.840;0.214;2022-10-31T13:45:21;13.38;;;5.25;;
34902;SDS011;21114;44.840;0.214;2022-10-31T13:48:37;15.45;;;6.90;;
34902;SDS011;21114;44.840;0.214;2022-10-31T13:51:52;12.70;;;6.78;;
34902;SDS011;21114;44.840;0.214;2022-10-31T13:54:21;9.30;;;6.22;;
34902;SDS011;21114;44.840;0.214;2022-10-31T13:57:40;15.23;;;5.60;;
34902;SDS011;21114;44.840;0.214;2022-10-31T14:00:58;12.05;;;7.20;;
34902;SDS011;21114;44.840;0.214;2022-10-31T14:04:15;12.23;;;6.13;;
34902;SDS011;21114;44.840;0.214;2022-10-31T14:07:30;12.25;;;6.22;;
34902;SDS011;21114;44.840;0.214;2022-10-31T14:12:36;10.70;;;6.82;;
34902;SDS011;21114;44.840;0.214;2022-10-31T14:18:35;16.50;;;7.85;;
34902;SDS011;21114;44.840;0.214;2022-10-31T14:21:51;12.45;;;6.53;;
34902;SDS011;21114;44.840;0.214;2022-10-31T14:27:02;10.10;;;6.72;;
34902;SDS011;21114;44.840;0.214;2022-10-31T14:30:19;16.30;;;8.68;;
34902;SDS011;21114;44.840;0.214;2022-10-31T14:33:34;14.13;;;6.80;;
34902;SDS011;21114;44.840;0.214;2022-10-31T14:36:02;17.88;;;8.75;;
34902;SDS011;21114;44.840;0.214;2022-10-31T14:53:00;15.63;;;6.97;;
34902;SDS011;21114;44.840;0.214;2022-10-31T14:56:17;14.95;;;6.55;;
34902;SDS011;21114;44.840;0.214;2022-10-31T14:59:36;17.45;;;6.93;;
34902;SDS011;21114;44.840;0.214;2022-10-31T15:05:48;13.57;;;5.28;;
34902;SDS011;21114;44.840;0.214;2022-10-31T15:09:04;11.80;;;6.38;;
34902;SDS011;21114;44.840;0.214;2022-10-31T15:11:35;12.77;;;5.22;;
34902;SDS011;21114;44.840;0.214;2022-10-31T15:14:50;10.73;;;5.70;;
34902;SDS011;21114;44.840;0.214;2022-10-31T15:17:17;9.75;;;4.70;;
34902;SDS011;21114;44.840;0.214;2022-10-31T15:19:43;9.48;;;4.45;;
34902;SDS011;21114;44.840;0.214;2022-10-31T15:22:58;9.77;;;4.80;;
34902;SDS011;21114;44.840;0.214;2022-10-31T15:25:48;12.15;;;6.03;;
34902;SDS011;21114;44.840;0.214;2022-10-31T15:28:16;8.25;;;5.00;;
34902;SDS011;21114;44.840;0.214;2022-10-31T15:31:34;13.00;;;4.30;;
34902;SDS011;21114;44.840;0.214;2022-10-31T15:34:49;11.85;;;4.50;;
34902;SDS011;21114;44.840;0.214;2022-10-31T15:38:04;9.05;;;4.03;;
34902;SDS011;21114;44.840;0.214;2022-10-31T15:40:30;8.52;;;4.78;;
34902;SDS011;21114;44.840;0.214;2022-10-31T15:42:58;8.20;;;4.93;;
34902;SDS011;21114;44.840;0.214;2022-10-31T15:46:13;8.90;;;4.18;;
34902;SDS011;21114;44.840;0.214;2022-10-31T15:48:39;6.57;;;4.45;;
34902;SDS011;21114;44.840;0.214;2022-10-31T15:51:48;6.78;;;4.97;;
34902;SDS011;21114;44.840;0.214;2022-10-31T15:54:14;9.23;;;4.78;;
34902;SDS011;21114;44.840;0.214;2022-10-31T15:56:40;10.05;;;5.32;;
34902;SDS011;21114;44.840;0.214;2022-10-31T15:59:57;9.80;;;4.20;;
34902;SDS011;21114;44.840;0.214;2022-10-31T16:03:22;9.93;;;4.50;;
34902;SDS011;21114;44.840;0.214;2022-10-31T16:06:38;12.00;;;3.90;;
34902;SDS011;21114;44.840;0.214;2022-10-31T16:09:18;9.35;;;3.97;;
34902;SDS011;21114;44.840;0.214;2022-10-31T16:12:35;7.30;;;4.15;;
34902;SDS011;21114;44.840;0.214;2022-10-31T16:15:52;6.68;;;4.00;;
34902;SDS011;21114;44.840;0.214;2022-10-31T16:19:15;7.05;;;3.83;;
34902;SDS011;21114;44.840;0.214;2022-10-31T16:22:31;8.68;;;4.45;;
34902;SDS011;21114;44.840;0.214;2022-10-31T16:25:47;9.15;;;3.40;;
34902;SDS011;21114;44.840;0.214;2022-10-31T16:31:12;12.77;;;6.03;;
34902;SDS011;21114;44.840;0.214;2022-10-31T16:34:27;20.38;;;11.18;;
34902;SDS011;21114;44.840;0.214;2022-10-31T16:36:53;23.98;;;13.98;;
34902;SDS011;21114;44.840;0.214;2022-10-31T16:39:19;7.28;;;4.05;;
34902;SDS011;21114;44.840;0.214;2022-10-31T16:41:46;11.43;;;3.63;;
34902;SDS011;21114;44.840;0.214;2022-10-31T16:45:01;6.65;;;3.45;;
34902;SDS011;21114;44.840;0.214;2022-10-31T16:47:27;6.25;;;3.75;;
34902;SDS011;21114;44.840;0.214;2022-10-31T16:49:53;7.85;;;3.13;;
34902;SDS011;21114;44.840;0.214;2022-10-31T16:52:19;6.72;;;4.25;;
34902;SDS011;21114;44.840;0.214;2022-10-31T16:54:45;11.60;;;3.42;;
34902;SDS011;21114;44.840;0.214;2022-10-31T16:57:13;8.35;;;2.95;;
34902;SDS011;21114;44.840;0.214;2022-10-31T17:00:29;6.75;;;4.53;;
34902;SDS011;21114;44.840;0.214;2022-10-31T17:02:56;5.95;;;3.00;;
34902;SDS011;21114;44.840;0.214;2022-10-31T17:06:12;5.85;;;3.15;;
34902;SDS011;21114;44.840;0.214;2022-10-31T17:09:27;5.07;;;3.45;;
34902;SDS011;21114;44.840;0.214;2022-10-31T17:11:53;7.57;;;3.47;;
34902;SDS011;21114;44.840;0.214;2022-10-31T17:14:19;11.00;;;5.45;;
34902;SDS011;21114;44.840;0.214;2022-10-31T17:16:46;8.15;;;3.40;;
34902;SDS011;21114;44.840;0.214;2022-10-31T17:19:12;6.35;;;3.25;;
34902;SDS011;21114;44.840;0.214;2022-10-31T17:21:38;7.97;;;4.22;;
34902;SDS011;21114;44.840;0.214;2022-10-31T17:24:05;13.50;;;4.43;;
34902;SDS011;21114;44.840;0.214;2022-10-31T17:26:31;9.70;;;4.07;;
34902;SDS011;21114;44.840;0.214;2022-10-31T17:28:57;10.82;;;4.88;;
34902;SDS011;21114;44.840;0.214;2022-10-31T17:31:27;9.13;;;4.28;;
34902;SDS011;21114;44.840;0.214;2022-10-31T17:34:43;6.22;;;4.35;;
34902;SDS011;21114;44.840;0.214;2022-10-31T17:37:09;7.22;;;3.95;;
34902;SDS011;21114;44.840;0.214;2022-10-31T17:40:24;8.50;;;3.40;;
34902;SDS011;21114;44.840;0.214;2022-10-31T17:42:51;9.73;;;4.03;;
34902;SDS011;21114;44.840;0.214;2022-10-31T17:46:06;4.57;;;2.90;;
34902;SDS011;21114;44.840;0.214;2022-10-31T17:48:33;8.32;;;4.35;;
34902;SDS011;21114;44.840;0.214;2022-10-31T17:51:47;3.90;;;3.20;;
34902;SDS011;21114;44.840;0.214;2022-10-31T17:54:14;6.15;;;3.05;;
34902;SDS011;21114;44.840;0.214;2022-10-31T17:56:42;5.13;;;3.15;;
34902;SDS011;21114;44.840;0.214;2022-10-31T17:59:08;6.38;;;2.85;;
34902;SDS011;21114;44.840;0.214;2022-10-31T18:01:35;6.50;;;3.47;;
34902;SDS011;21114;44.840;0.214;2022-10-31T18:04:01;4.35;;;3.05;;
34902;SDS011;21114;44.840;0.214;2022-10-31T18:06:27;6.47;;;3.10;;
34902;SDS011;21114;44.840;0.214;2022-10-31T18:08:53;7.93;;;3.70;;
34902;SDS011;21114;44.840;0.214;2022-10-31T18:11:22;5.45;;;2.72;;
34902;SDS011;21114;44.840;0.214;2022-10-31T18:14:37;5.22;;;3.28;;
34902;SDS011;21114;44.840;0.214;2022-10-31T18:17:03;7.85;;;3.90;;
34902;SDS011;21114;44.840;0.214;2022-10-31T18:19:29;4.43;;;3.60;;
34902;SDS011;21114;44.840;0.214;2022-10-31T18:21:55;10.32;;;2.83;;
34902;SDS011;21114;44.840;0.214;2022-10-31T18:24:21;7.32;;;3.08;;
34902;SDS011;21114;44.840;0.214;2022-10-31T18:26:47;5.05;;;3.25;;
34902;SDS011;21114;44.840;0.214;2022-10-31T18:29:14;8.45;;;4.10;;
34902;SDS011;21114;44.840;0.214;2022-10-31T18:32:29;5.10;;;3.22;;
34902;SDS011;21114;44.840;0.214;2022-10-31T18:34:55;9.13;;;3.50;;
34902;SDS011;21114;44.840;0.214;2022-10-31T18:37:21;6.22;;;3.00;;
34902;SDS011;21114;44.840;0.214;2022-10-31T18:39:47;8.80;;;3.15;;
34902;SDS011;21114;44.840;0.214;2022-10-31T18:42:13;5.20;;;3.13;;
34902;SDS011;21114;44.840;0.214;2022-10-31T18:44:39;7.80;;;4.35;;
34902;SDS011;21114;44.840;0.214;2022-10-31T18:47:05;5.20;;;2.38;;
34902;SDS011;21114;44.840;0.214;2022-10-31T18:49:32;8.43;;;3.17;;
34902;SDS011;21114;44.840;0.214;2022-10-31T18:51:58;12.32;;;4.65;;
34902;SDS011;21114;44.840;0.214;2022-10-31T18:54:24;5.22;;;3.05;;
34902;SDS011;21114;44.840;0.214;2022-10-31T18:56:50;10.55;;;4.85;;
34902;SDS011;21114;44.840;0.214;2022-10-31T18:59:16;5.55;;;3.63;;
34902;SDS011;21114;44.840;0.214;2022-10-31T19:01:43;10.23;;;3.50;;
34902;SDS011;21114;44.840;0.214;2022-10-31T19:04:09;7.13;;;3.92;;